createdAt,value
2023-03-19T00:01:51.977Z,95731.56
2023-03-19T00:04:19.079Z,95733.67
2023-03-19T00:06:46.226Z,95733.13
2023-03-19T00:09:13.061Z,95737.92
2023-03-19T00:11:39.925Z,95734.29
2023-03-19T00:14:06.774Z,95729.66
2023-03-19T00:16:33.968Z,95729.50
2023-03-19T00:19:01.307Z,95731.88
2023-03-19T00:21:30.551Z,95727.88
2023-03-19T00:24:02.430Z,95728.75
2023-03-19T00:26:30.468Z,95722.81
2023-03-19T00:28:58.174Z,95721.25
2023-03-19T00:31:26.298Z,95717.89
2023-03-19T00:33:53.313Z,95714.32
2023-03-19T00:36:20.295Z,95713.20
2023-03-19T00:38:47.540Z,95715.55
2023-03-19T00:41:15.491Z,95710.17
2023-03-19T00:43:42.266Z,95708.98
2023-03-19T00:46:09.247Z,95704.95
2023-03-19T00:48:36.054Z,95702.48
2023-03-19T00:51:08.103Z,95702.52
2023-03-19T00:53:42.729Z,95701.30
2023-03-19T00:56:11.700Z,95700.27
2023-03-19T00:58:38.939Z,95695.95
2023-03-19T01:01:06.739Z,95696.73
2023-03-19T01:03:34.046Z,95694.54
2023-03-19T01:06:01.015Z,95689.43
2023-03-19T01:08:27.891Z,95691.21
2023-03-19T01:10:54.738Z,95690.24
2023-03-19T01:13:21.610Z,95687.25
2023-03-19T01:15:52.561Z,95687.14
2023-03-19T01:18:19.599Z,95684.31
2023-03-19T01:20:46.396Z,95682.46
2023-03-19T01:23:13.720Z,95680.02
2023-03-19T01:25:40.570Z,95682.39
2023-03-19T01:28:07.751Z,95680.86
2023-03-19T01:30:37.366Z,95679.19
2023-03-19T01:33:25.495Z,95674.77
2023-03-19T01:36:06.033Z,95676.01
2023-03-19T01:38:38.899Z,95680.88
2023-03-19T01:41:10.193Z,95680.06
2023-03-19T01:43:37.611Z,95676.09
2023-03-19T01:46:27.211Z,95680.73
2023-03-19T01:49:13.872Z,95682.47
2023-03-19T01:51:47.493Z,95687.89
2023-03-19T01:54:32.582Z,95688.45
2023-03-19T01:57:16.552Z,95688.71
2023-03-19T02:00:05.602Z,95690.66
2023-03-19T02:02:47.323Z,95693.73
2023-03-19T02:05:26.032Z,95693.58
2023-03-19T02:07:59.574Z,95694.88
2023-03-19T02:10:27.272Z,95690.85
2023-03-19T02:12:54.212Z,95691.40
2023-03-19T02:15:21.608Z,95684.66
2023-03-19T02:17:48.979Z,95681.91
2023-03-19T02:20:32.952Z,95687.98
2023-03-19T02:23:20.928Z,95686.02
2023-03-19T02:25:55.031Z,95684.42
2023-03-19T02:28:23.583Z,95682.87
2023-03-19T02:30:52.360Z,95683.02
2023-03-19T02:33:19.456Z,95684.38
2023-03-19T02:35:49.412Z,95689.32
2023-03-19T02:38:17.870Z,95691.52
2023-03-19T02:41:06.247Z,95688.89
2023-03-19T02:43:35.499Z,95689.15
2023-03-19T02:46:06.077Z,95694.20
2023-03-19T02:48:33.146Z,95696.48
2023-03-19T02:50:59.957Z,95694.70
2023-03-19T02:53:27.207Z,95702.09
2023-03-19T02:55:53.988Z,95702.77
2023-03-19T02:58:20.997Z,95703.21
2023-03-19T03:00:47.915Z,95701.87
2023-03-19T03:03:14.747Z,95703.19
2023-03-19T03:05:41.501Z,95702.16
2023-03-19T03:08:09.416Z,95707.54
2023-03-19T03:10:36.626Z,95711.27
2023-03-19T03:13:05.554Z,95713.50
2023-03-19T03:15:32.272Z,95709.39
2023-03-19T03:17:59.191Z,95713.33
2023-03-19T03:20:26.004Z,95715.38
2023-03-19T03:22:53.760Z,95714.41
2023-03-19T03:25:21.295Z,95715.89
2023-03-19T03:27:48.389Z,95719.04
2023-03-19T03:30:16.238Z,95722.27
2023-03-19T03:32:44.075Z,95723.08
2023-03-19T03:35:11.227Z,95722.53
2023-03-19T03:37:39.737Z,95721.14
2023-03-19T03:40:08.532Z,95719.30
2023-03-19T03:42:37.489Z,95722.14
2023-03-19T03:45:05.526Z,95722.42
2023-03-19T03:47:32.701Z,95720.95
2023-03-19T03:49:59.966Z,95725.73
2023-03-19T03:52:31.428Z,95728.05
2023-03-19T03:54:58.585Z,95733.73
2023-03-19T03:57:26.727Z,95735.54
2023-03-19T03:59:54.460Z,95732.98
2023-03-19T04:02:21.828Z,95737.27
2023-03-19T04:04:49.147Z,95733.16
2023-03-19T04:07:16.049Z,95730.01
2023-03-19T04:09:46.633Z,95729.98
2023-03-19T04:12:14.250Z,95729.80
2023-03-19T04:14:41.992Z,95722.52
2023-03-19T04:17:09.597Z,95722.27
2023-03-19T04:19:36.596Z,95722.02
2023-03-19T04:22:03.688Z,95721.01
2023-03-19T04:24:31.517Z,95716.69
2023-03-19T04:26:58.510Z,95720.72
2023-03-19T04:29:25.733Z,95723.80
2023-03-19T04:31:52.661Z,95726.41
2023-03-19T04:34:19.793Z,95726.83
2023-03-19T04:36:47.372Z,95729.55
2023-03-19T04:39:14.633Z,95729.79
2023-03-19T04:41:41.874Z,95731.92
2023-03-19T04:44:29.105Z,95733.15
2023-03-19T04:46:56.224Z,95737.04
2023-03-19T04:49:24.543Z,95738.50
2023-03-19T04:51:51.990Z,95737.60
2023-03-19T04:54:19.208Z,95734.97
2023-03-19T04:56:46.026Z,95738.99
2023-03-19T04:59:13.022Z,95739.41
2023-03-19T05:01:40.020Z,95734.02
2023-03-19T05:04:09.772Z,95733.89
2023-03-19T05:06:40.060Z,95732.46
2023-03-19T05:09:07.743Z,95733.73
2023-03-19T05:11:34.918Z,95736.61
2023-03-19T05:14:12.453Z,95741.13
2023-03-19T05:16:56.250Z,95741.54
2023-03-19T05:19:25.209Z,95740.00
2023-03-19T05:21:52.769Z,95740.60
2023-03-19T05:24:24.719Z,95737.17
2023-03-19T05:26:52.458Z,95738.38
2023-03-19T05:29:31.211Z,95734.48
2023-03-19T05:32:21.215Z,95730.98
2023-03-19T05:34:48.218Z,95735.08
2023-03-19T05:37:15.428Z,95730.35
2023-03-19T05:39:45.372Z,95733.80
2023-03-19T05:42:14.783Z,95734.48
2023-03-19T05:44:42.149Z,95732.45
2023-03-19T05:47:27.128Z,95729.77
2023-03-19T05:49:55.323Z,95730.70
2023-03-19T05:52:22.993Z,95731.77
2023-03-19T05:54:50.783Z,95737.12
2023-03-19T05:57:30.329Z,95737.52
2023-03-19T06:00:06.715Z,95736.69
2023-03-19T06:02:34.482Z,95736.45
2023-03-19T06:05:16.858Z,95729.70
2023-03-19T06:07:44.034Z,95727.73
2023-03-19T06:10:18.192Z,95726.21
2023-03-19T06:12:45.958Z,95730.52
2023-03-19T06:15:28.188Z,95728.04
2023-03-19T06:18:07.455Z,95730.71
2023-03-19T06:20:35.392Z,95733.48
2023-03-19T06:23:02.748Z,95731.59
2023-03-19T06:25:30.030Z,95728.87
2023-03-19T06:27:56.769Z,95733.86
2023-03-19T06:30:34.358Z,95736.89
2023-03-19T06:33:03.069Z,95739.92
2023-03-19T06:35:31.316Z,95736.54
2023-03-19T06:37:58.426Z,95738.25
2023-03-19T06:40:25.238Z,95742.83
2023-03-19T06:42:52.456Z,95746.71
2023-03-19T06:45:20.332Z,95739.27
2023-03-19T06:47:47.738Z,95747.77
2023-03-19T06:50:16.540Z,95747.99
2023-03-19T06:52:43.975Z,95753.15
2023-03-19T06:55:12.389Z,95754.80
2023-03-19T06:57:39.458Z,95761.13
2023-03-19T07:00:07.443Z,95761.73
2023-03-19T07:02:34.273Z,95759.22
2023-03-19T07:05:01.050Z,95755.09
2023-03-19T07:07:27.868Z,95754.52
2023-03-19T07:09:54.585Z,95754.73
2023-03-19T07:12:21.556Z,95754.23
2023-03-19T07:14:48.320Z,95756.23
2023-03-19T07:17:15.483Z,95757.48
2023-03-19T07:19:42.327Z,95753.80
2023-03-19T07:22:09.123Z,95758.39
2023-03-19T07:24:36.071Z,95755.19
2023-03-19T07:27:03.235Z,95757.31
2023-03-19T07:29:30.172Z,95755.20
2023-03-19T07:31:57.462Z,95753.48
2023-03-19T07:34:24.537Z,95747.21
2023-03-19T07:36:51.708Z,95748.20
2023-03-19T07:39:19.079Z,95749.73
2023-03-19T07:41:48.649Z,95746.31
2023-03-19T07:44:16.609Z,95744.40
2023-03-19T07:46:43.439Z,95745.61
2023-03-19T07:49:10.446Z,95747.52
2023-03-19T07:51:37.323Z,95748.55
2023-03-19T07:54:04.260Z,95751.61
2023-03-19T07:56:31.293Z,95750.17
2023-03-19T07:58:58.496Z,95751.53
2023-03-19T08:01:26.133Z,95752.83
2023-03-19T08:03:52.970Z,95750.37
2023-03-19T08:06:19.742Z,95746.90
2023-03-19T08:08:46.866Z,95742.27
2023-03-19T08:11:13.694Z,95742.01
2023-03-19T08:13:40.482Z,95747.71
2023-03-19T08:16:07.368Z,95747.21
2023-03-19T08:18:34.831Z,95744.35
2023-03-19T08:21:01.814Z,95746.11
2023-03-19T08:23:28.669Z,95748.66
2023-03-19T08:25:57.150Z,95747.16
2023-03-19T08:28:24.089Z,95742.66
2023-03-19T08:30:50.974Z,95748.01
2023-03-19T08:33:18.118Z,95750.88
2023-03-19T08:35:45.014Z,95749.19
2023-03-19T08:38:12.081Z,95750.21
2023-03-19T08:40:56.736Z,95748.29
2023-03-19T08:43:23.548Z,95747.15
2023-03-19T08:45:50.381Z,95740.92
2023-03-19T08:48:17.325Z,95735.41
2023-03-19T08:50:44.109Z,95737.75
2023-03-19T08:53:11.126Z,95736.17
2023-03-19T08:55:38.065Z,95728.64
2023-03-19T08:58:04.952Z,95722.69
2023-03-19T09:00:31.887Z,95720.02
2023-03-19T09:02:58.756Z,95718.98
2023-03-19T09:05:27.575Z,95718.77
2023-03-19T09:07:55.496Z,95708.01
2023-03-19T09:10:22.351Z,95706.27
2023-03-19T09:12:49.307Z,95702.27
2023-03-19T09:15:17.079Z,95699.02
2023-03-19T09:17:44.462Z,95698.17
2023-03-19T09:20:11.612Z,95694.42
2023-03-19T09:22:38.479Z,95695.48
2023-03-19T09:25:05.926Z,95694.16
2023-03-19T09:27:32.755Z,95693.81
2023-03-19T09:29:59.701Z,95693.16
2023-03-19T09:32:26.735Z,95691.05
2023-03-19T09:34:53.779Z,95688.96
2023-03-19T09:37:20.592Z,95691.26
2023-03-19T09:39:47.474Z,95686.09
2023-03-19T09:42:37.073Z,95682.73
2023-03-19T09:45:04.639Z,95683.14
2023-03-19T09:47:34.211Z,95682.39
2023-03-19T09:50:14.771Z,95683.52
2023-03-19T09:52:47.166Z,95679.69
2023-03-19T09:55:19.346Z,95676.69
2023-03-19T09:57:47.737Z,95674.52
2023-03-19T10:00:17.530Z,95670.89
2023-03-19T10:02:44.476Z,95671.14
2023-03-19T10:05:35.984Z,95666.40
2023-03-19T10:08:32.866Z,95661.61
2023-03-19T10:11:17.922Z,95655.00
2023-03-19T10:14:02.560Z,95656.03
2023-03-19T10:16:30.824Z,95653.28
2023-03-19T10:19:02.841Z,95649.23
2023-03-19T10:21:32.400Z,95650.66
2023-03-19T10:24:06.605Z,95645.50
2023-03-19T10:26:38.004Z,95640.04
2023-03-19T10:29:20.878Z,95632.14
2023-03-19T10:32:09.309Z,95626.21
2023-03-19T10:34:58.494Z,95623.20
2023-03-19T10:37:28.844Z,95618.02
2023-03-19T10:39:58.320Z,95612.13
2023-03-19T10:42:36.892Z,95609.17
2023-03-19T10:45:26.771Z,95604.13
2023-03-19T10:47:56.225Z,95601.02
2023-03-19T10:50:57.649Z,95595.00
2023-03-19T10:53:35.591Z,95588.66
2023-03-19T10:56:24.252Z,95581.91
2023-03-19T10:59:06.362Z,95576.10
2023-03-19T11:01:39.940Z,95571.71
2023-03-19T11:04:18.707Z,95569.09
2023-03-19T11:06:50.848Z,95562.56
2023-03-19T11:09:28.549Z,95560.43
2023-03-19T11:12:05.655Z,95555.85
2023-03-19T11:14:39.628Z,95552.75
2023-03-19T11:17:18.313Z,95547.45
2023-03-19T11:19:52.480Z,95545.14
2023-03-19T11:22:23.198Z,95541.21
2023-03-19T11:24:54.458Z,95533.11
2023-03-19T11:27:34.969Z,95531.48
2023-03-19T11:30:07.154Z,95527.95
2023-03-19T11:32:58.504Z,95524.16
2023-03-19T11:35:57.261Z,95518.55
2023-03-19T11:38:52.567Z,95511.73
2023-03-19T11:41:57.045Z,95503.83
2023-03-19T11:44:35.531Z,95499.23
2023-03-19T11:47:17.850Z,95495.88
2023-03-19T11:50:18.789Z,95491.09
2023-03-19T11:53:11.677Z,95488.84
2023-03-19T11:55:57.415Z,95483.48
2023-03-19T11:58:30.256Z,95482.55
2023-03-19T12:01:01.721Z,95478.67
2023-03-19T12:03:56.579Z,95478.87
2023-03-19T12:07:01.131Z,95476.01
2023-03-19T12:09:57.371Z,95471.71
2023-03-19T12:12:37.029Z,95466.91
2023-03-19T12:15:20.734Z,95463.98
2023-03-19T12:18:03.050Z,95459.44
2023-03-19T12:20:42.308Z,95457.22
2023-03-19T12:23:37.698Z,95454.35
2023-03-19T12:26:10.064Z,95450.91
2023-03-19T12:28:43.837Z,95452.48
2023-03-19T12:31:36.352Z,95447.42
2023-03-19T12:34:34.122Z,95444.73
2023-03-19T12:37:14.847Z,95438.31
2023-03-19T12:39:53.173Z,95436.41
2023-03-19T12:42:22.479Z,95436.23
2023-03-19T12:44:57.308Z,95433.16
2023-03-19T12:47:33.940Z,95431.11
2023-03-19T12:50:27.469Z,95430.52
2023-03-19T12:52:58.616Z,95426.52
2023-03-19T12:55:43.668Z,95426.33
2023-03-19T12:58:14.553Z,95421.33
2023-03-19T13:01:03.613Z,95417.16
2023-03-19T13:03:53.538Z,95415.29
2023-03-19T13:06:23.704Z,95410.88
2023-03-19T13:09:04.014Z,95409.67
2023-03-19T13:11:39.813Z,95410.84
2023-03-19T13:14:17.436Z,95410.55
2023-03-19T13:16:57.924Z,95405.05
2023-03-19T13:19:35.700Z,95400.62
2023-03-19T13:22:11.845Z,95395.10
2023-03-19T13:24:41.701Z,95392.36
2023-03-19T13:27:16.424Z,95392.80
2023-03-19T13:33:04.439Z,95386.08
2023-03-19T13:35:45.746Z,95379.20
2023-03-19T13:38:19.053Z,95379.66
2023-03-19T13:40:51.498Z,95378.59
2023-03-19T13:43:44.303Z,95379.61
2023-03-19T13:46:13.891Z,95376.90
2023-03-19T13:48:46.558Z,95375.05
2023-03-19T13:51:17.814Z,95371.73
2023-03-19T13:53:54.228Z,95367.92
2023-03-19T13:56:30.002Z,95361.38
2023-03-19T13:59:16.142Z,95362.02
2023-03-19T14:01:44.931Z,95359.11
2023-03-19T14:04:35.344Z,95359.66
2023-03-19T14:07:18.203Z,95357.29
2023-03-19T14:09:49.563Z,95358.80
2023-03-19T14:12:26.105Z,95351.88
2023-03-19T14:14:58.663Z,95350.92
2023-03-19T14:17:38.512Z,95349.85
2023-03-19T14:20:37.608Z,95345.77
2023-03-19T14:23:06.524Z,95343.61
2023-03-19T14:26:05.275Z,95345.11
2023-03-19T14:28:59.348Z,95341.14
2023-03-19T14:31:47.609Z,95344.88
2023-03-19T14:34:34.304Z,95340.02
2023-03-19T14:37:08.423Z,95337.08
2023-03-19T14:39:49.060Z,95338.88
2023-03-19T14:42:19.926Z,95335.64
2023-03-19T14:45:18.515Z,95336.20
2023-03-19T14:48:05.885Z,95335.83
2023-03-19T14:50:35.709Z,95334.13
2023-03-19T14:53:15.589Z,95329.73
2023-03-19T14:55:43.032Z,95332.65
2023-03-19T14:58:13.025Z,95332.47
2023-03-19T15:00:47.217Z,95328.14
2023-03-19T15:03:28.639Z,95330.17
2023-03-19T15:06:01.122Z,95331.21
2023-03-19T15:08:31.482Z,95330.14
2023-03-19T15:11:19.309Z,95329.86
2023-03-19T15:14:12.759Z,95333.75
2023-03-19T15:16:54.571Z,95332.58
2023-03-19T15:19:28.876Z,95335.50
2023-03-19T15:22:13.508Z,95337.33
2023-03-19T15:24:40.903Z,95339.86
2023-03-19T15:40:11.518Z,95340.29
2023-03-19T15:42:39.385Z,95340.98
2023-03-19T15:45:14.982Z,95342.13
2023-03-19T15:47:54.463Z,95342.48
2023-03-19T15:50:25.961Z,95341.95
2023-03-19T15:52:59.531Z,95343.55
2023-03-19T15:55:26.540Z,95341.15
2023-03-19T15:57:58.002Z,95339.74
2023-03-19T16:00:25.326Z,95343.73
2023-03-19T16:02:52.886Z,95342.89
2023-03-19T16:05:29.812Z,95346.38
2023-03-19T16:08:17.870Z,95346.50
2023-03-19T16:10:45.934Z,95350.79
2023-03-19T16:13:31.208Z,95352.44
2023-03-19T16:16:05.293Z,95356.66
2023-03-19T16:18:45.556Z,95352.02
2023-03-19T16:21:18.132Z,95354.68
2023-03-19T16:24:14.144Z,95355.96
2023-03-19T16:26:44.495Z,95354.27
2023-03-19T16:29:22.744Z,95360.98
2023-03-19T16:31:52.255Z,95361.05
2023-03-19T16:34:31.989Z,95363.45
2023-03-19T16:36:59.779Z,95365.13
2023-03-19T16:39:37.095Z,95362.77
2023-03-19T16:42:09.538Z,95367.20
2023-03-19T16:44:41.028Z,95365.80
2023-03-19T16:47:12.741Z,95370.90
2023-03-19T16:49:39.562Z,95368.90
2023-03-19T16:52:12.179Z,95369.58
2023-03-19T16:54:38.995Z,95375.59
2023-03-19T16:57:06.214Z,95376.33
2023-03-19T16:59:33.165Z,95379.80
2023-03-19T17:02:00.043Z,95379.06
2023-03-19T17:04:29.112Z,95379.71
2023-03-19T17:06:56.100Z,95382.23
2023-03-19T17:09:23.607Z,95381.30
2023-03-19T17:11:50.742Z,95382.14
2023-03-19T17:14:21.284Z,95386.73
2023-03-19T17:16:50.854Z,95387.48
2023-03-19T17:19:22.208Z,95394.67
2023-03-19T17:21:53.542Z,95398.21
2023-03-19T17:24:30.065Z,95397.95
2023-03-19T17:26:59.451Z,95399.09
2023-03-19T17:29:27.300Z,95398.14
2023-03-19T17:31:56.043Z,95397.71
2023-03-19T17:34:26.579Z,95398.88
2023-03-19T17:37:04.233Z,95400.73
2023-03-19T17:39:31.627Z,95401.98
2023-03-19T17:41:59.718Z,95403.05
2023-03-19T17:44:27.979Z,95406.05
2023-03-19T17:46:57.145Z,95409.81
2023-03-19T17:49:30.132Z,95408.65
2023-03-19T17:51:57.431Z,95411.02
2023-03-19T17:54:26.856Z,95411.19
2023-03-19T17:56:56.750Z,95419.03
2023-03-19T17:59:24.075Z,95420.93
2023-03-19T18:01:52.216Z,95424.17
2023-03-19T18:04:21.480Z,95424.85
2023-03-19T18:06:56.655Z,95422.87
2023-03-19T18:09:27.005Z,95423.20
2023-03-19T18:11:54.374Z,95424.23
2023-03-19T18:14:21.349Z,95425.32
2023-03-19T18:16:48.590Z,95428.41
2023-03-19T18:19:37.745Z,95427.55
2023-03-19T18:22:16.701Z,95432.63
2023-03-19T18:24:44.365Z,95434.02
2023-03-19T18:27:11.218Z,95436.90
2023-03-19T18:29:38.445Z,95436.96
2023-03-19T18:32:13.150Z,95442.41
2023-03-19T18:34:39.918Z,95448.33
2023-03-19T18:37:06.845Z,95454.67
2023-03-19T18:39:38.094Z,95456.52
2023-03-19T18:42:04.963Z,95459.51
2023-03-19T18:44:31.928Z,95462.23
2023-03-19T18:46:58.828Z,95460.84
2023-03-19T18:49:27.440Z,95461.72
2023-03-19T18:52:02.753Z,95464.02
2023-03-19T18:54:33.550Z,95468.60
2023-03-19T18:57:01.788Z,95466.20
2023-03-19T18:59:33.118Z,95471.70
2023-03-19T19:07:29.991Z,95481.94
2023-03-19T19:09:56.817Z,95486.86
2023-03-19T19:12:27.188Z,95487.52
2023-03-19T19:14:54.112Z,95492.45
2023-03-19T19:17:24.802Z,95495.27
2023-03-19T19:19:51.658Z,95498.75
2023-03-19T19:22:19.630Z,95495.73
2023-03-19T19:24:47.150Z,95496.81
2023-03-19T19:27:22.143Z,95493.70
2023-03-19T19:29:50.372Z,95493.96
2023-03-19T19:32:20.889Z,95494.44
2023-03-19T19:35:08.009Z,95495.91
2023-03-19T19:37:35.202Z,95498.89
2023-03-19T19:40:04.526Z,95500.27
2023-03-19T20:02:57.480Z,95500.61
2023-03-19T20:05:28.031Z,95504.11
2023-03-19T20:07:58.578Z,95502.45
2023-03-19T20:10:28.084Z,95506.23
2023-03-19T20:12:58.685Z,95506.89
2023-03-19T20:15:29.539Z,95507.44
2023-03-19T20:17:58.011Z,95511.39
2023-03-19T20:20:28.251Z,95520.55
2023-03-19T20:22:56.852Z,95520.11
2023-03-19T20:25:26.629Z,95525.62
2023-03-19T20:27:59.479Z,95528.02
2023-03-19T20:30:27.900Z,95533.31
2023-03-19T20:32:56.299Z,95534.73
2023-03-19T20:35:26.214Z,95538.66
2023-03-19T20:37:54.595Z,95539.05
2023-03-19T20:40:24.278Z,95549.92
2023-03-19T20:42:52.617Z,95551.99
2023-03-19T20:45:24.875Z,95552.71
2023-03-19T20:47:55.907Z,95552.05
2023-03-19T20:50:28.778Z,95545.67
2023-03-19T20:53:01.277Z,95548.23
2023-03-19T20:55:35.085Z,95548.34
2023-03-19T20:58:04.327Z,95550.65
2023-03-19T21:00:33.789Z,95553.91
2023-03-19T21:03:02.400Z,95555.94
2023-03-19T21:05:36.512Z,95556.10
2023-03-19T21:08:12.078Z,95550.64
2023-03-19T21:10:44.772Z,95552.84
2023-03-19T21:13:17.916Z,95553.73
2023-03-19T21:15:46.491Z,95554.71
2023-03-19T21:18:13.837Z,95558.37
2023-03-19T21:20:42.697Z,95561.34
2023-03-19T21:23:19.066Z,95561.02
2023-03-19T21:25:47.321Z,95555.98
2023-03-19T21:28:29.485Z,95556.57
2023-03-19T21:30:57.796Z,95557.16
2023-03-19T21:33:28.160Z,95555.34
2023-03-19T21:35:56.488Z,95555.38
2023-03-19T21:38:23.701Z,95552.31
